Time;durP1;ratioP1;P1;durP2;ratioP2;P2;SDS_P1;SDS_P2;PMS_P1;PMS_P2;Temp;Humidity;BMP_temperature;BMP_pressure;BME280_temperature;BME280_humidity;BME280_pressure;Samples;Min_cycle;Max_cycle;Signal;HPM_P1;HPM_P2
2021/12/07 00:01:06;;;;;;;32.33;16.98;;;1.70;99.90;;;;;;5036457;28;20048;-64
2021/12/07 00:03:32;;;;;;;29.02;17.00;;;;;;;;;;5035029;28;20037;-63
2021/12/07 00:05:58;;;;;;;31.15;18.02;;;1.60;99.90;;;;;;5035959;28;20041;-64
2021/12/07 00:08:25;;;;;;;31.85;16.00;;;1.70;99.90;;;;;;5035707;28;20041;-64
2021/12/07 00:10:51;;;;;;;34.03;18.55;;;1.60;99.90;;;;;;5036073;28;20430;-64
2021/12/07 00:13:18;;;;;;;32.05;17.98;;;;;;;;;;5035942;28;20407;-63
2021/12/07 00:15:45;;;;;;;30.90;18.52;;;1.60;99.90;;;;;;5035913;28;20049;-64
2021/12/07 00:18:11;;;;;;;32.67;16.40;;;;;;;;;;5036518;28;20156;-63
2021/12/07 00:20:37;;;;;;;36.50;18.45;;;;;;;;;;5035020;28;20088;-63
2021/12/07 00:23:07;;;;;;;32.33;18.25;;;1.60;99.90;;;;;;5034862;28;20053;-65
2021/12/07 00:25:33;;;;;;;34.42;17.90;;;1.60;99.90;;;;;;5035645;28;20087;-64
2021/12/07 00:27:58;;;;;;;30.15;17.73;;;1.50;99.90;;;;;;5034377;28;20096;-64
2021/12/07 00:30:29;;;;;;;31.42;16.85;;;1.50;99.90;;;;;;5017965;28;20033;-64
2021/12/07 00:33:17;;;;;;;20.95;11.52;;;1.50;99.90;;;;;;5034470;28;20183;-64
2021/12/07 00:35:43;;;;;;;32.25;17.42;;;1.60;99.90;;;;;;5034599;28;20064;-64
2021/12/07 00:38:16;;;;;;;31.05;17.83;;;1.40;99.90;;;;;;5036247;28;20037;-64
2021/12/07 00:40:43;;;;;;;31.52;17.60;;;1.50;99.90;;;;;;5034819;28;20041;-63
2021/12/07 00:43:09;;;;;;;34.13;18.50;;;1.50;99.90;;;;;;5035425;28;20049;-64
2021/12/07 00:45:35;;;;;;;32.03;17.77;;;1.50;99.90;;;;;;5035493;28;20033;-64
2021/12/07 00:48:04;;;;;;;28.17;17.02;;;1.60;99.90;;;;;;5017925;28;20381;-65
2021/12/07 00:50:31;;;;;;;29.83;18.02;;;1.50;99.90;;;;;;5035261;28;20053;-64
2021/12/07 00:52:57;;;;;;;27.92;17.15;;;1.80;99.90;;;;;;5035157;28;20491;-64
2021/12/07 00:55:27;;;;;;;31.65;17.42;;;1.60;99.90;;;;;;5034253;28;20520;-64
2021/12/07 00:57:56;;;;;;;29.50;17.05;;;;;;;;;;5035232;28;20049;-64
2021/12/07 01:00:25;;;;;;;28.50;16.40;;;1.50;99.90;;;;;;5034925;28;20515;-64
2021/12/07 01:02:53;;;;;;;30.23;16.48;;;1.40;99.90;;;;;;5035411;28;20052;-64
2021/12/07 01:05:26;;;;;;;29.52;16.48;;;1.40;99.90;;;;;;5035376;28;20041;-64
2021/12/07 01:26:53;;;;;;;27.77;16.30;;;1.50;99.90;;;;;;5033567;28;20057;-64
2021/12/07 01:29:22;;;;;;;31.02;16.67;;;1.50;99.90;;;;;;5034159;28;20037;-64
2021/12/07 01:32:02;;;;;;;28.17;14.80;;;1.50;99.90;;;;;;5034674;28;20037;-64
2021/12/07 01:38:08;;;;;;;27.42;15.70;;;1.50;99.90;;;;;;5034600;28;20057;-63
2021/12/07 01:47:51;;;;;;;24.88;12.65;;;;;;;;;;5034379;28;20038;-64
2021/12/07 01:50:38;;;;;;;24.17;13.32;;;;;;;;;;5033855;28;20045;-62
2021/12/07 01:57:47;;;;;;;25.10;13.13;;;1.50;99.90;;;;;;5034180;28;20041;-63
2021/12/07 02:01:29;;;;;;;22.70;13.13;;;1.60;99.90;;;;;;5033938;28;20049;-64
2021/12/07 02:03:55;;;;;;;22.58;12.15;;;1.60;99.90;;;;;;5033864;28;20088;-63
2021/12/07 02:06:20;;;;;;;22.15;12.63;;;1.40;99.90;;;;;;5034142;28;20119;-64
2021/12/07 02:08:46;;;;;;;24.00;12.30;;;1.50;99.90;;;;;;5034250;28;20048;-64
2021/12/07 02:11:12;;;;;;;21.55;12.00;;;1.50;99.90;;;;;;5034127;28;20037;-64
2021/12/07 02:16:03;;;;;;;22.45;13.27;;;1.50;99.90;;;;;;5033774;28;20384;-64
2021/12/07 02:18:29;;;;;;;24.13;13.35;;;1.40;99.90;;;;;;5033530;28;20033;-63
2021/12/07 02:20:55;;;;;;;22.20;12.48;;;1.50;99.90;;;;;;5033499;28;20095;-63
2021/12/07 02:23:20;;;;;;;21.80;12.88;;;1.50;99.90;;;;;;5033683;28;20120;-64
2021/12/07 02:25:46;;;;;;;23.83;11.35;;;1.60;99.90;;;;;;5033537;28;20085;-64
2021/12/07 02:28:16;;;;;;;24.45;11.82;;;1.50;99.90;;;;;;5034022;28;20388;-64
2021/12/07 02:30:44;;;;;;;20.85;11.40;;;1.60;99.90;;;;;;5033911;28;20041;-64
2021/12/07 02:33:10;;;;;;;20.80;11.90;;;1.60;99.90;;;;;;5032388;28;20072;-64
2021/12/07 02:35:37;;;;;;;21.52;12.55;;;1.50;99.90;;;;;;5033961;28;20069;-64
2021/12/07 02:38:03;;;;;;;21.40;12.20;;;1.50;99.90;;;;;;5033913;28;20056;-63
2021/12/07 02:40:29;;;;;;;19.75;11.55;;;1.40;99.90;;;;;;5033779;28;20045;-63
2021/12/07 02:42:55;;;;;;;19.58;11.52;;;;;;;;;;5033642;28;20041;-63
2021/12/07 02:45:22;;;;;;;20.10;12.10;;;;;;;;;;5032676;28;20041;-64
2021/12/07 02:47:49;;;;;;;17.33;10.25;;;;;;;;;;5032307;28;20144;-63
2021/12/07 02:50:16;;;;;;;18.58;11.73;;;1.50;99.90;;;;;;5033106;28;20091;-64
2021/12/07 02:52:42;;;;;;;19.58;11.27;;;;;;;;;;5033896;28;20499;-64
2021/12/07 02:55:09;;;;;;;23.05;12.15;;;;;;;;;;5033296;28;20562;-63
2021/12/07 02:57:35;;;;;;;20.20;11.30;;;1.40;99.90;;;;;;5033740;28;20065;-64
2021/12/07 03:00:10;;;;;;;18.50;11.73;;;1.50;99.90;;;;;;5033872;28;20041;-63
2021/12/07 03:02:43;;;;;;;20.90;12.88;;;1.50;99.90;;;;;;5033399;28;20072;-62
2021/12/07 03:05:26;;;;;;;20.38;11.68;;;1.60;99.90;;;;;;5033698;28;20050;-64
2021/12/07 03:26:53;;;;;;;18.38;10.73;;;1.50;99.90;;;;;;5037219;28;20041;-63
2021/12/07 03:29:18;;;;;;;18.45;11.02;;;1.40;99.90;;;;;;5036553;28;20122;-64
2021/12/07 03:31:45;;;;;;;18.45;11.90;;;1.60;99.90;;;;;;5036721;28;20033;-64
2021/12/07 03:34:10;;;;;;;17.55;11.27;;;1.70;99.90;;;;;;5035918;28;20037;-64
2021/12/07 03:36:36;;;;;;;18.13;11.00;;;1.70;99.90;;;;;;5037238;28;20040;-64
2021/12/07 03:39:05;;;;;;;22.58;11.80;;;1.70;99.90;;;;;;5036545;28;20041;-63
2021/12/07 03:41:30;;;;;;;19.85;11.13;;;1.80;99.90;;;;;;5036023;28;20095;-64
2021/12/07 03:43:56;;;;;;;21.38;12.13;;;1.80;99.90;;;;;;5036628;28;20446;-63
2021/12/07 03:46:22;;;;;;;22.20;12.10;;;1.80;99.90;;;;;;5036553;28;20041;-64
2021/12/07 03:48:48;;;;;;;18.98;11.27;;;1.90;99.90;;;;;;5036295;28;20058;-64
2021/12/07 03:51:14;;;;;;;20.30;11.77;;;1.90;99.90;;;;;;5034913;28;20049;-64
2021/12/07 03:53:40;;;;;;;25.13;11.70;;;1.90;99.90;;;;;;5036418;28;20041;-63
2021/12/07 03:56:08;;;;;;;23.38;12.10;;;1.90;99.90;;;;;;5036143;28;20041;-63
2021/12/07 03:58:34;;;;;;;18.10;11.73;;;1.90;99.90;;;;;;5036248;28;20048;-63
2021/12/07 04:01:01;;;;;;;21.73;11.00;;;1.90;99.90;;;;;;5036174;28;20438;-64
2021/12/07 04:03:32;;;;;;;18.98;10.57;;;1.90;99.90;;;;;;5035018;28;20053;-64
2021/12/07 04:06:00;;;;;;;19.52;11.43;;;2.00;99.90;;;;;;5035923;28;20120;-63
2021/12/07 04:08:27;;;;;;;18.20;10.77;;;2.00;99.90;;;;;;5036255;28;20048;-64
2021/12/07 04:10:54;;;;;;;19.90;9.77;;;2.10;99.90;;;;;;5034470;28;20041;-64
2021/12/07 04:13:20;;;;;;;23.38;10.40;;;2.10;99.90;;;;;;5036153;28;20038;-64
2021/12/07 04:15:46;;;;;;;18.88;10.25;;;2.10;99.90;;;;;;5035519;28;20099;-64
2021/12/07 04:18:12;;;;;;;19.55;9.80;;;2.10;99.90;;;;;;5035322;28;20041;-64
2021/12/07 04:20:38;;;;;;;15.88;9.25;;;2.20;99.90;;;;;;5036001;28;20037;-64
2021/12/07 04:23:05;;;;;;;20.52;10.95;;;2.20;99.90;;;;;;5036001;28;20084;-63
2021/12/07 04:25:31;;;;;;;18.50;9.30;;;2.20;99.90;;;;;;5035862;28;20069;-63
2021/12/07 04:27:57;;;;;;;20.48;9.40;;;2.10;99.90;;;;;;5036653;28;20037;-64
2021/12/07 04:30:30;;;;;;;14.98;8.55;;;2.20;99.90;;;;;;5054168;28;20523;-64
2021/12/07 04:32:57;;;;;;;14.90;8.70;;;2.10;99.90;;;;;;5056755;28;20049;-64
2021/12/07 04:35:23;;;;;;;14.77;7.75;;;2.00;99.90;;;;;;5054925;28;20041;-64
2021/12/07 04:37:49;;;;;;;16.02;8.55;;;1.90;99.90;;;;;;5054076;28;20478;-63
2021/12/07 04:40:19;;;;;;;17.27;8.10;;;2.10;99.90;;;;;;5055184;28;20072;-64
2021/12/07 04:42:45;;;;;;;14.73;8.25;;;1.70;99.90;;;;;;5054499;28;20137;-63
2021/12/07 04:45:23;;;;;;;20.17;9.13;;;1.90;99.90;;;;;;5053513;28;20073;-64
2021/12/07 04:48:06;;;;;;;17.58;9.80;;;1.90;99.90;;;;;;5054827;28;20053;-63
2021/12/07 04:58:29;;;;;;;19.10;8.30;;;1.90;99.90;;;;;;5048283;28;20045;-64
2021/12/07 05:00:55;;;;;;;15.07;8.75;;;1.90;99.90;;;;;;5034373;28;20392;-64
2021/12/07 05:03:21;;;;;;;15.23;8.48;;;2.00;99.90;;;;;;5034075;28;20111;-65
2021/12/07 05:05:50;;;;;;;16.83;8.65;;;2.00;99.90;;;;;;5035089;28;20056;-64
2021/12/07 05:08:31;;;;;;;16.77;9.02;;;2.00;99.90;;;;;;5035023;28;20379;-65
2021/12/07 05:37:42;;;;;;;16.30;8.55;;;2.10;99.90;;;;;;5038700;28;20037;-65
2021/12/07 05:40:11;;;;;;;14.35;8.95;;;2.10;99.90;;;;;;5040820;28;20491;-65
2021/12/07 05:42:40;;;;;;;20.25;9.38;;;2.00;99.90;;;;;;5047732;28;20490;-64
2021/12/07 05:45:10;;;;;;;15.85;8.90;;;1.90;99.90;;;;;;5051786;28;20043;-65
2021/12/07 05:47:36;;;;;;;18.80;9.23;;;2.20;99.90;;;;;;5042376;28;20031;-65
2021/12/07 05:50:03;;;;;;;25.55;10.18;;;;;;;;;;5033032;28;20118;-64
2021/12/07 05:52:29;;;;;;;20.08;10.25;;;;;;;;;;5046653;28;20110;-64
2021/12/07 05:54:55;;;;;;;17.92;9.98;;;;;;;;;;5033374;28;20037;-65
2021/12/07 05:57:21;;;;;;;18.83;9.65;;;2.10;99.90;;;;;;5029819;28;20056;-65
2021/12/07 05:59:47;;;;;;;19.35;9.55;;;;;;;;;;5045956;28;20138;-64
2021/12/07 06:02:12;;;;;;;19.05;9.93;;;2.10;99.90;;;;;;5048646;28;20060;-64
2021/12/07 06:04:38;;;;;;;20.20;9.38;;;2.20;99.90;;;;;;5050420;28;20079;-64
2021/12/07 06:07:04;;;;;;;17.45;9.95;;;2.20;99.90;;;;;;5051499;28;20512;-64
2021/12/07 06:09:30;;;;;;;15.82;8.45;;;2.10;99.90;;;;;;5051471;28;20128;-65
2021/12/07 06:11:57;;;;;;;16.33;9.70;;;;;;;;;;5034678;28;20505;-63
2021/12/07 06:14:30;;;;;;;15.95;9.45;;;;;;;;;;5030351;28;20150;-64
2021/12/07 06:16:56;;;;;;;19.80;8.23;;;;;;;;;;5045452;28;20041;-65
2021/12/07 06:19:22;;;;;;;17.35;8.82;;;;;;;;;;5045390;28;20048;-65
2021/12/07 06:21:48;;;;;;;15.90;8.63;;;2.00;99.90;;;;;;5049038;28;20041;-64
2021/12/07 06:24:15;;;;;;;17.33;8.05;;;2.00;99.90;;;;;;5048711;28;20031;-65
2021/12/07 06:26:40;;;;;;;14.48;8.05;;;1.90;99.90;;;;;;5049496;28;20033;-65
2021/12/07 06:29:06;;;;;;;16.13;8.40;;;1.90;99.90;;;;;;5050377;28;20044;-65
2021/12/07 06:31:31;;;;;;;21.75;7.13;;;1.80;99.90;;;;;;5049579;28;20041;-65
2021/12/07 06:33:57;;;;;;;15.93;7.53;;;1.80;99.90;;;;;;5050102;28;20032;-65
2021/12/07 06:36:24;;;;;;;13.43;6.43;;;1.80;99.90;;;;;;5047121;28;20064;-65
2021/12/07 06:38:51;;;;;;;17.52;5.85;;;2.00;99.90;;;;;;5048794;28;20499;-65
2021/12/07 06:41:16;;;;;;;17.30;6.63;;;2.00;99.90;;;;;;5045884;28;20071;-65
2021/12/07 06:43:43;;;;;;;13.07;5.30;;;;;;;;;;5030849;28;20065;-64
2021/12/07 06:46:08;;;;;;;19.85;6.63;;;2.00;99.90;;;;;;5025492;28;20065;-65
2021/12/07 06:48:35;;;;;;;15.93;5.93;;;;;;;;;;5050966;28;20053;-65
2021/12/07 06:51:02;;;;;;;17.48;5.57;;;2.10;99.90;;;;;;5050217;28;20045;-65
2021/12/07 06:53:35;;;;;;;19.35;7.90;;;2.30;99.90;;;;;;5046039;28;20422;-65
2021/12/07 06:56:04;;;;;;;12.43;5.07;;;2.20;99.90;;;;;;5045422;28;20036;-66
2021/12/07 06:58:30;;;;;;;15.55;5.32;;;2.10;99.90;;;;;;5049930;28;20116;-65
2021/12/07 07:00:56;;;;;;;12.18;4.93;;;2.20;99.90;;;;;;5055067;28;20075;-65
2021/12/07 07:03:22;;;;;;;9.98;4.22;;;;;;;;;;5053516;28;20553;-64
2021/12/07 07:05:47;;;;;;;11.85;5.00;;;2.40;99.90;;;;;;5042611;28;20515;-65
2021/12/07 07:08:15;;;;;;;13.35;4.65;;;2.50;99.90;;;;;;5033470;28;20832;-65
2021/12/07 07:10:41;;;;;;;9.75;4.75;;;2.40;99.90;;;;;;5035226;28;20450;-65
2021/12/07 07:13:07;;;;;;;13.93;5.85;;;;;;;;;;5035329;28;20094;-65
2021/12/07 07:15:32;;;;;;;12.13;4.07;;;2.60;99.90;;;;;;5035460;28;20045;-65
2021/12/07 07:18:00;;;;;;;11.93;4.38;;;;;;;;;;5035130;28;20423;-65
2021/12/07 07:20:27;;;;;;;11.65;4.45;;;2.40;99.90;;;;;;5037281;28;20065;-65
2021/12/07 07:22:53;;;;;;;10.57;4.00;;;;;;;;;;5034008;28;20526;-65
2021/12/07 07:25:19;;;;;;;15.93;5.05;;;2.50;99.90;;;;;;5034853;28;20041;-65
2021/12/07 07:27:45;;;;;;;13.52;4.40;;;2.50;99.90;;;;;;5036979;28;20048;-65
2021/12/07 07:30:14;;;;;;;12.82;4.88;;;2.60;99.90;;;;;;5038569;28;20037;-65
2021/12/07 07:32:40;;;;;;;15.05;4.60;;;2.50;99.90;;;;;;5035113;28;20029;-66
2021/12/07 07:35:07;;;;;;;15.98;4.70;;;;;;;;;;5045085;28;20038;-65
2021/12/07 07:37:33;;;;;;;11.60;4.00;;;2.50;99.90;;;;;;5045280;28;20045;-66
2021/12/07 07:39:59;;;;;;;10.93;3.72;;;;;;;;;;5047717;28;20165;-65
2021/12/07 07:42:25;;;;;;;21.35;4.70;;;;;;;;;;5045398;28;20509;-65
2021/12/07 07:44:50;;;;;;;13.32;4.85;;;2.60;99.90;;;;;;5045278;28;20043;-65
2021/12/07 07:47:16;;;;;;;14.27;4.18;;;2.30;99.90;;;;;;5047043;28;20112;-66
2021/12/07 07:49:42;;;;;;;10.43;4.32;;;;;;;;;;5043342;28;20512;-64
2021/12/07 07:52:08;;;;;;;12.60;4.25;;;2.50;99.90;;;;;;5045607;28;20049;-66
2021/12/07 07:54:33;;;;;;;10.02;3.95;;;2.50;99.90;;;;;;5044013;28;20518;-66
2021/12/07 07:56:59;;;;;;;16.90;4.95;;;;;;;;;;5039455;28;20034;-65
2021/12/07 07:59:25;;;;;;;10.75;4.50;;;2.40;99.90;;;;;;5034079;28;20076;-66
2021/12/07 08:01:51;;;;;;;16.67;4.75;;;2.50;99.90;;;;;;5039113;28;20048;-65
2021/12/07 08:04:17;;;;;;;22.27;5.18;;;2.50;99.90;;;;;;5037748;28;20059;-64
2021/12/07 08:06:43;;;;;;;20.42;5.63;;;2.50;99.90;;;;;;5038964;28;20167;-66
2021/12/07 08:09:08;;;;;;;9.40;4.55;;;2.50;99.90;;;;;;5032940;28;20033;-66
2021/12/07 08:11:34;;;;;;;13.32;4.47;;;;;;;;;;5032359;28;20539;-65
2021/12/07 08:14:01;;;;;;;15.73;5.28;;;2.60;99.90;;;;;;5032601;28;20068;-66
2021/12/07 08:16:27;;;;;;;13.20;4.55;;;2.60;99.90;;;;;;5032879;28;20037;-66
2021/12/07 08:18:54;;;;;;;12.43;3.92;;;;;;;;;;5034296;28;20041;-65
2021/12/07 08:21:21;;;;;;;14.60;4.45;;;3.40;99.90;;;;;;5034985;28;20049;-66
2021/12/07 08:23:47;;;;;;;14.40;4.82;;;;;;;;;;5035423;28;20073;-66
2021/12/07 08:26:21;;;;;;;18.88;4.55;;;3.40;99.90;;;;;;5032381;28;20546;-64
2021/12/07 08:28:46;;;;;;;14.40;4.80;;;3.30;99.90;;;;;;5016528;28;20056;-66
2021/12/07 08:31:12;;;;;;;9.32;3.88;;;3.40;99.90;;;;;;5033870;28;20065;-66
2021/12/07 08:33:39;;;;;;;12.82;4.85;;;;;;;;;;5048952;28;20513;-65
2021/12/07 08:36:05;;;;;;;11.70;4.25;;;3.60;99.90;;;;;;5032641;28;20033;-66
2021/12/07 08:38:31;;;;;;;12.93;4.65;;;;;;;;;;5036786;28;20043;-64
2021/12/07 08:40:57;;;;;;;8.43;4.57;;;;;;;;;;5032530;28;20044;-64
2021/12/07 08:43:31;;;;;;;11.77;4.85;;;;;;;;;;5031936;28;20128;-65
2021/12/07 08:46:00;;;;;;;12.00;4.38;;;3.90;99.90;;;;;;5037907;28;20061;-64
2021/12/07 08:48:27;;;;;;;12.05;4.40;;;;;;;;;;5039300;28;20132;-64
2021/12/07 08:50:53;;;;;;;17.25;4.68;;;3.90;99.90;;;;;;5032234;28;20049;-64
2021/12/07 08:53:20;;;;;;;10.15;4.60;;;;;;;;;;5031070;28;20042;-64
2021/12/07 09:01:20;;;;;;;10.27;4.72;;;4.80;99.90;;;;;;5030688;28;20053;-64
2021/12/07 09:03:47;;;;;;;13.00;4.65;;;;;;;;;;5035603;28;20041;-63
2021/12/07 09:06:13;;;;;;;10.07;4.63;;;;;;;;;;5034624;28;20037;-65
2021/12/07 09:08:40;;;;;;;13.00;6.00;;;4.90;99.90;;;;;;5041448;28;20056;-66
2021/12/07 09:11:06;;;;;;;10.75;4.28;;;;;;;;;;5044867;28;20041;-67
2021/12/07 09:13:32;;;;;;;16.05;4.82;;;;;;;;;;5032651;28;20030;-65
2021/12/07 09:15:58;;;;;;;8.35;4.28;;;5.30;99.90;;;;;;5041070;28;20116;-65
2021/12/07 09:18:25;;;;;;;15.82;4.65;;;5.30;99.90;;;;;;5031490;28;20048;-67
2021/12/07 09:20:51;;;;;;;11.38;4.07;;;5.30;99.90;;;;;;5035230;28;20078;-65
2021/12/07 09:23:17;;;;;;;12.73;4.85;;;;;;;;;;5041233;28;20057;-66
2021/12/07 09:25:44;;;;;;;15.35;4.93;;;;;;;;;;5032144;28;20041;-66
2021/12/07 09:28:10;;;;;;;12.57;4.50;;;5.40;99.90;;;;;;5041410;28;20037;-66
2021/12/07 09:30:37;;;;;;;9.68;3.58;;;5.40;99.90;;;;;;5039813;28;20041;-66
2021/12/07 09:33:04;;;;;;;9.55;3.97;;;;;;;;;;5033104;28;20480;-66
2021/12/07 09:35:30;;;;;;;7.88;4.75;;;5.60;99.90;;;;;;5030966;28;20037;-66
2021/12/07 09:37:56;;;;;;;10.95;4.60;;;5.60;99.90;;;;;;5033893;28;20495;-66
2021/12/07 09:40:24;;;;;;;12.07;4.43;;;5.50;99.90;;;;;;5034519;28;20037;-66
2021/12/07 09:42:50;;;;;;;14.63;4.80;;;;;;;;;;5033639;28;20045;-63
2021/12/07 09:45:18;;;;;;;21.67;5.45;;;;;;;;;;5017002;28;20033;-66
2021/12/07 09:47:45;;;;;;;10.60;4.47;;;;;;;;;;5035461;28;20097;-66
2021/12/07 09:50:15;;;;;;;12.60;4.38;;;7.10;99.90;;;;;;5032938;28;20041;-67
2021/12/07 09:52:44;;;;;;;12.68;5.07;;;6.70;99.90;;;;;;5030433;28;20054;-67
2021/12/07 09:55:10;;;;;;;6.97;4.38;;;6.40;99.90;;;;;;5031441;28;20107;-67
2021/12/07 09:57:36;;;;;;;15.15;4.30;;;6.30;99.90;;;;;;5034751;28;20040;-67
2021/12/07 10:00:06;;;;;;;10.60;4.55;;;6.20;99.90;;;;;;5035200;28;20046;-66
2021/12/07 10:02:32;;;;;;;9.65;4.13;;;;;;;;;;5029301;28;20116;-66
2021/12/07 10:04:58;;;;;;;18.25;4.70;;;;;;;;;;5032878;28;20045;-67
2021/12/07 10:07:24;;;;;;;12.63;4.05;;;;;;;;;;5042610;28;20049;-62
2021/12/07 10:09:50;;;;;;;10.27;4.15;;;6.30;99.90;;;;;;5040504;28;20091;-66
2021/12/07 10:12:21;;;;;;;10.10;4.22;;;6.20;99.90;;;;;;5039635;28;20083;-66
2021/12/07 10:14:47;;;;;;;10.60;3.65;;;;;;;;;;5043817;28;20056;-66
2021/12/07 10:17:13;;;;;;;13.25;3.90;;;;;;;;;;5033872;28;20049;-65
2021/12/07 10:19:45;;;;;;;10.75;3.97;;;;;;;;;;5032538;28;20091;-67
2021/12/07 10:22:19;;;;;;;17.20;4.72;;;6.50;99.90;;;;;;5031677;28;20044;-66
2021/12/07 10:24:50;;;;;;;8.50;4.32;;;6.40;99.90;;;;;;5030270;28;20037;-65
2021/12/07 10:27:33;;;;;;;13.95;4.18;;;;;;;;;;5030329;28;20708;-65
2021/12/07 10:30:00;;;;;;;14.95;4.75;;;;;;;;;;5030464;28;20126;-65
2021/12/07 10:32:26;;;;;;;14.00;4.72;;;6.30;99.90;;;;;;5031049;28;20463;-66
2021/12/07 10:34:51;;;;;;;13.77;4.75;;;6.30;99.90;;;;;;5032660;28;20120;-65
2021/12/07 10:37:20;;;;;;;13.85;4.13;;;6.20;99.90;;;;;;5032063;28;20076;-65
2021/12/07 10:39:48;;;;;;;11.32;4.63;;;6.30;99.90;;;;;;5035459;28;20601;-66
2021/12/07 10:42:15;;;;;;;13.10;4.10;;;;;;;;;;5035384;28;20046;-65
2021/12/07 10:44:42;;;;;;;16.30;4.88;;;;;;;;;;5033332;28;20480;-65
2021/12/07 10:47:12;;;;;;;15.27;4.72;;;6.40;99.90;;;;;;5033422;28;20052;-64
2021/12/07 10:49:51;;;;;;;15.18;4.85;;;6.40;99.90;;;;;;5035737;28;20139;-66
2021/12/07 10:52:21;;;;;;;16.83;4.43;;;6.40;99.90;;;;;;5032215;28;20084;-67
2021/12/07 10:55:00;;;;;;;11.75;4.00;;;6.20;99.90;;;;;;5046507;28;20087;-67
2021/12/07 10:57:33;;;;;;;15.88;4.03;;;6.50;99.90;;;;;;5047164;28;20052;-66
2021/12/07 11:00:17;;;;;;;14.40;3.67;;;6.40;99.90;;;;;;5045022;28;20049;-66
2021/12/07 11:02:48;;;;;;;9.63;3.78;;;6.70;99.90;;;;;;5048149;28;20479;-67
2021/12/07 11:05:21;;;;;;;14.57;4.40;;;6.70;99.90;;;;;;5047347;28;20045;-64
2021/12/07 11:07:47;;;;;;;13.07;3.63;;;;;;;;;;5039620;28;20526;-66
2021/12/07 11:10:29;;;;;;;14.68;4.15;;;6.80;99.90;;;;;;5041006;28;20029;-66
2021/12/07 11:13:07;;;;;;;12.70;3.78;;;7.10;99.90;;;;;;5029725;28;20052;-66
2021/12/07 11:15:35;;;;;;;10.57;4.90;;;6.90;99.90;;;;;;5035093;28;20507;-66
2021/12/07 11:18:07;;;;;;;9.40;3.70;;;7.00;99.90;;;;;;5033142;28;20053;-66
2021/12/07 11:20:34;;;;;;;11.73;4.65;;;6.80;99.90;;;;;;5016989;28;20060;-66
2021/12/07 11:23:12;;;;;;;11.63;3.90;;;6.60;99.90;;;;;;5033515;28;20049;-67
2021/12/07 11:31:30;;;;;;;10.90;4.10;;;;;;;;;;5029541;28;20038;-66
2021/12/07 11:34:16;;;;;;;8.43;3.92;;;;;;;;;;5045974;28;20057;-66
2021/12/07 11:36:52;;;;;;;10.07;4.40;;;6.60;99.90;;;;;;5032062;28;20041;-66
2021/12/07 11:39:37;;;;;;;12.50;4.43;;;6.60;99.90;;;;;;5033809;28;20060;-66
2021/12/07 11:42:02;;;;;;;10.23;3.88;;;6.80;99.90;;;;;;5033184;28;20099;-66
2021/12/07 11:44:30;;;;;;;9.30;4.15;;;7.00;99.90;;;;;;5002294;28;20500;-66
2021/12/07 11:46:56;;;;;;;14.27;4.18;;;;;;;;;;5033614;28;20037;-65
2021/12/07 11:49:28;;;;;;;18.90;4.50;;;6.90;99.90;;;;;;5034092;28;20057;-66
2021/12/07 11:51:58;;;;;;;7.55;4.22;;;7.00;99.90;;;;;;5046346;28;20041;-66
2021/12/07 11:54:33;;;;;;;11.65;4.03;;;7.00;99.90;;;;;;5040313;28;20041;-66
2021/12/07 11:57:01;;;;;;;9.20;4.25;;;7.30;99.90;;;;;;5033226;28;20049;-66
2021/12/07 11:59:27;;;;;;;10.65;4.13;;;7.40;99.90;;;;;;5032373;28;20105;-66
2021/12/07 12:01:53;;;;;;;14.88;4.65;;;7.50;99.90;;;;;;5035691;28;20115;-66
2021/12/07 12:04:20;;;;;;;19.67;4.05;;;7.70;99.90;;;;;;5044959;28;20037;-66
2021/12/07 12:06:47;;;;;;;9.23;3.53;;;;;;;;;;5046111;28;20053;-66
2021/12/07 12:09:13;;;;;;;9.75;3.65;;;7.50;99.90;;;;;;5046251;28;20046;-66
2021/12/07 12:12:19;;;;;;;12.18;4.53;;;7.50;99.90;;;;;;5042814;28;20536;-66
2021/12/07 12:14:46;;;;;;;15.40;4.75;;;;;;;;;;5046043;28;20411;-65
2021/12/07 12:17:16;;;;;;;8.95;3.92;;;7.60;99.90;;;;;;5047447;28;20052;-66
2021/12/07 12:20:10;;;;;;;9.63;4.68;;;7.30;99.90;;;;;;5043149;28;20706;-66
2021/12/07 12:22:49;;;;;;;12.45;4.80;;;7.50;99.90;;;;;;5036174;28;20038;-66
2021/12/07 12:25:19;;;;;;;13.45;4.10;;;7.70;99.90;;;;;;5039506;28;20869;-67
2021/12/07 12:27:47;;;;;;;13.82;4.15;;;;;;;;;;5047217;28;20399;-66
2021/12/07 12:30:20;;;;;;;13.77;4.45;;;8.90;99.90;;;;;;5047403;28;20037;-66
2021/12/07 12:32:53;;;;;;;11.50;3.80;;;9.20;99.90;;;;;;5042988;28;20049;-66
2021/12/07 12:35:41;;;;;;;14.85;3.80;;;9.30;99.90;;;;;;5041646;28;20049;-65
2021/12/07 12:38:28;;;;;;;6.72;3.08;;;9.20;99.90;;;;;;5042587;28;20033;-66
2021/12/07 12:41:09;;;;;;;11.50;4.22;;;8.80;99.90;;;;;;5045344;28;20068;-66
2021/12/07 12:43:54;;;;;;;6.28;3.55;;;8.30;99.90;;;;;;5037567;28;20060;-65
2021/12/07 12:46:29;;;;;;;14.40;2.92;;;7.90;99.90;;;;;;5043867;28;20037;-65
2021/12/07 12:48:58;;;;;;;12.85;3.70;;;7.90;99.90;;;;;;5038938;28;20057;-65
2021/12/07 12:51:28;;;;;;;11.90;3.50;;;7.60;99.90;;;;;;5031571;28;20077;-66
2021/12/07 12:53:54;;;;;;;12.73;4.65;;;7.60;99.90;;;;;;5031835;28;20048;-66
2021/12/07 12:56:23;;;;;;;10.38;3.83;;;7.50;99.90;;;;;;5032780;28;20049;-65
2021/12/07 12:58:53;;;;;;;10.23;4.28;;;;;;;;;;5032990;28;20507;-66
2021/12/07 13:01:31;;;;;;;14.80;5.65;;;7.30;99.90;;;;;;5031473;28;20049;-66
2021/12/07 13:04:21;;;;;;;13.68;4.20;;;7.30;99.90;;;;;;5031553;28;20045;-67
2021/12/07 13:07:05;;;;;;;12.43;3.83;;;7.10;99.90;;;;;;5038933;28;20190;-66
2021/12/07 13:09:40;;;;;;;11.23;4.00;;;7.10;99.90;;;;;;5044646;28;20090;-65
2021/12/07 13:12:17;;;;;;;11.35;3.80;;;7.20;99.90;;;;;;5042174;28;20033;-66
2021/12/07 13:14:49;;;;;;;11.20;3.78;;;7.10;99.90;;;;;;5045637;28;20194;-66
2021/12/07 13:17:46;;;;;;;13.02;4.13;;;7.00;99.90;;;;;;5024403;28;20068;-66
2021/12/07 13:20:18;;;;;;;10.13;4.47;;;7.10;99.90;;;;;;5006349;28;20053;-66
2021/12/07 13:23:03;;;;;;;6.85;3.63;;;;;;;;;;5010207;28;20555;-66
2021/12/07 13:25:29;;;;;;;17.02;4.22;;;;;;;;;;5029157;28;20470;-66
2021/12/07 13:28:10;;;;;;;11.52;4.10;;;;;;;;;;5031759;28;20042;-66
2021/12/07 13:31:10;;;;;;;17.83;4.03;;;6.80;99.90;;;;;;5030732;28;20496;-66
2021/12/07 13:33:57;;;;;;;14.10;4.05;;;6.60;99.90;;;;;;5030655;28;20060;-66
2021/12/07 13:36:35;;;;;;;15.73;3.95;;;6.50;99.90;;;;;;5028482;28;20099;-66
2021/12/07 13:39:10;;;;;;;13.95;4.10;;;6.40;99.90;;;;;;5030536;28;20060;-66
2021/12/07 13:41:50;;;;;;;15.90;5.25;;;;;;;;;;5030656;28;20052;-65
2021/12/07 13:44:16;;;;;;;15.32;5.13;;;6.20;99.90;;;;;;5030825;28;20057;-66
2021/12/07 13:46:42;;;;;;;12.60;4.13;;;;;;;;;;5031817;28;20037;-66
2021/12/07 13:49:11;;;;;;;14.38;4.88;;;6.30;99.90;;;;;;5031460;28;20115;-65
2021/12/07 13:51:38;;;;;;;11.23;5.03;;;;;;;;;;5030143;28;20124;-66
2021/12/07 13:54:06;;;;;;;16.52;5.40;;;6.20;99.90;;;;;;5030348;28;20045;-66
2021/12/07 13:56:34;;;;;;;15.02;4.93;;;6.20;99.90;;;;;;5030541;28;20049;-66
2021/12/07 13:59:06;;;;;;;15.93;7.25;;;6.10;99.90;;;;;;5029456;28;20049;-64
2021/12/07 14:01:35;;;;;;;16.02;5.47;;;6.00;99.90;;;;;;5031394;28;20045;-66
2021/12/07 14:04:03;;;;;;;14.52;5.95;;;6.00;99.90;;;;;;5030210;28;20573;-65
2021/12/07 14:06:30;;;;;;;9.10;5.68;;;;;;;;;;5030725;28;20454;-66
2021/12/07 14:09:10;;;;;;;13.93;5.07;;;5.90;99.90;;;;;;5037238;28;20037;-65
2021/12/07 14:11:36;;;;;;;13.75;6.15;;;;;;;;;;5036871;28;20406;-65
2021/12/07 14:14:06;;;;;;;18.60;6.38;;;;;;;;;;5028642;28;20041;-65
2021/12/07 14:16:32;;;;;;;16.27;6.95;;;;;;;;;;5027177;28;20143;-64
2021/12/07 14:18:58;;;;;;;18.00;6.65;;;;;;;;;;5024988;28;20041;-65
2021/12/07 14:21:24;;;;;;;24.63;8.63;;;;;;;;;;5028290;28;20056;-65
2021/12/07 14:24:02;;;;;;;20.92;8.00;;;5.50;99.90;;;;;;5042223;28;20044;-65
2021/12/07 14:26:28;;;;;;;15.10;9.05;;;;;;;;;;5038664;28;20471;-66
2021/12/07 14:29:04;;;;;;;22.85;9.40;;;5.30;99.90;;;;;;5035707;28;20415;-66
2021/12/07 14:31:37;;;;;;;29.23;10.10;;;;;;;;;;5039373;28;20042;-63
2021/12/07 14:34:09;;;;;;;24.83;9.27;;;5.10;99.90;;;;;;5027696;28;20037;-65
2021/12/07 14:36:41;;;;;;;18.95;8.82;;;5.20;99.90;;;;;;5028968;28;20396;-66
2021/12/07 14:39:18;;;;;;;22.63;9.77;;;;;;;;;;5029827;28;20049;-66
2021/12/07 14:41:49;;;;;;;22.23;10.23;;;;;;;;;;4991996;28;20522;-65
2021/12/07 14:44:17;;;;;;;24.08;9.23;;;;;;;;;;5027676;28;20046;-66
2021/12/07 14:46:44;;;;;;;22.85;10.02;;;;;;;;;;5031108;28;20041;-66
2021/12/07 14:49:10;;;;;;;21.10;10.25;;;;;;;;;;5031597;28;20417;-66
2021/12/07 14:51:36;;;;;;;28.67;9.75;;;5.00;99.90;;;;;;5029326;28;20388;-67
2021/12/07 14:54:03;;;;;;;32.05;11.10;;;;;;;;;;5025018;28;20067;-65
2021/12/07 14:56:32;;;;;;;26.73;10.18;;;5.00;99.90;;;;;;5025960;28;20045;-66
2021/12/07 14:58:59;;;;;;;22.90;10.20;;;;;;;;;;5029295;28;20045;-65
2021/12/07 15:01:29;;;;;;;17.85;9.60;;;5.00;99.90;;;;;;5016352;28;20508;-65
2021/12/07 15:03:56;;;;;;;20.05;10.25;;;;;;;;;;5013652;28;20064;-65